Time;durP1;ratioP1;P1;durP2;ratioP2;P2;SDS_P1;SDS_P2;PMS_P1;PMS_P2;Temp;Humidity;BMP_temperature;BMP_pressure;BME280_temperature;BME280_humidity;BME280_pressure;Samples;Min_cycle;Max_cycle;Signal;HPM_P1;HPM_P2
2022/05/19 00:01:01;;;;;;;9.15;2.33;;;410.00;1382.40;;;;;;4995007;28;20046;-83
2022/05/19 00:03:28;;;;;;;4.00;2.33;;;410.10;1382.40;;;;;;5014698;28;20018;-82
2022/05/19 00:05:54;;;;;;;4.50;2.05;;;410.10;1382.40;;;;;;5014738;28;20385;-83
2022/05/19 00:08:20;;;;;;;9.55;2.58;;;410.00;1382.40;;;;;;5014733;28;20105;-83
2022/05/19 00:10:47;;;;;;;6.25;2.20;;;410.20;1382.40;;;;;;4996186;28;20065;-82
2022/05/19 00:13:12;;;;;;;5.35;1.80;;;410.20;1382.40;;;;;;4996565;28;20034;-83
2022/05/19 00:15:38;;;;;;;7.25;2.20;;;410.20;1382.40;;;;;;5014498;28;20037;-83
2022/05/19 00:18:04;;;;;;;5.68;2.42;;;410.20;1408.00;;;;;;4996787;28;20040;-82
2022/05/19 00:20:30;;;;;;;7.35;2.60;;;410.10;1484.80;;;;;;5014428;28;20379;-83
2022/05/19 00:22:55;;;;;;;4.85;2.30;;;409.90;1536.00;;;;;;4996487;28;20567;-82
2022/05/19 00:25:21;;;;;;;8.05;2.70;;;409.70;1561.60;;;;;;4997065;28;20524;-83
2022/05/19 00:27:47;;;;;;;7.95;2.53;;;409.60;1587.20;;;;;;4996322;28;20022;-83
2022/05/19 00:30:13;;;;;;;7.13;2.40;;;384.60;1587.20;;;;;;4996457;28;20393;-82
2022/05/19 00:32:39;;;;;;;10.52;2.80;;;384.40;1612.80;;;;;;5014315;28;20018;-82
2022/05/19 00:35:06;;;;;;;5.47;2.40;;;384.40;1638.40;;;;;;4995744;28;20037;-82
2022/05/19 00:37:32;;;;;;;5.53;2.70;;;359.30;1664.00;;;;;;5014454;28;20014;-83
2022/05/19 00:39:57;;;;;;;5.78;2.40;;;359.20;1689.60;;;;;;4996606;28;20386;-83
2022/05/19 00:45:08;;;;;;;11.38;2.60;;;359.00;1740.80;;;;;;5013071;28;20033;-81
2022/05/19 00:47:41;;;;;;;11.32;2.45;;;358.80;1740.80;;;;;;5012407;28;20462;-81
2022/05/19 00:50:15;;;;;;;4.72;2.38;;;358.90;1740.80;;;;;;5013831;28;20017;-80
2022/05/19 00:52:44;;;;;;;5.38;2.58;;;358.90;1740.80;;;;;;4994472;28;20017;-81
2022/05/19 00:55:16;;;;;;;7.65;2.60;;;358.50;1792.00;;;;;;4996277;28;20045;-81
2022/05/19 00:57:54;;;;;;;4.40;2.83;;;358.50;1817.60;;;;;;5013688;28;20018;-81
2022/05/19 01:00:22;;;;;;;8.77;2.75;;;358.60;1792.00;;;;;;4994234;28;20021;-81
2022/05/19 01:02:55;;;;;;;6.22;2.50;;;358.60;1792.00;;;;;;5013731;28;20077;-81
2022/05/19 01:05:24;;;;;;;10.70;2.70;;;358.70;1766.40;;;;;;4996103;28;20025;-81
2022/05/19 01:08:09;;;;;;;7.55;2.58;;;358.70;1740.80;;;;;;5013507;28;20018;-80
2022/05/19 01:10:36;;;;;;;9.38;2.65;;;358.70;1740.80;;;;;;4993392;28;20113;-81
2022/05/19 01:13:02;;;;;;;6.43;2.67;;;358.60;1715.20;;;;;;5013211;28;20025;-80
2022/05/19 01:15:28;;;;;;;5.88;2.50;;;358.70;1740.80;;;;;;5013388;28;20026;-81
2022/05/19 01:17:54;;;;;;;6.78;2.67;;;358.70;1766.40;;;;;;5008167;28;20104;-81
2022/05/19 01:20:24;;;;;;;8.15;2.90;;;358.70;1817.60;;;;;;5012574;28;20109;-81
2022/05/19 01:23:02;;;;;;;4.25;2.20;;;358.60;1868.80;;;;;;5012823;28;20096;-81
2022/05/19 01:26:03;;;;;;;9.23;2.70;;;358.50;1868.80;;;;;;5009852;28;20022;-81
2022/05/19 01:28:28;;;;;;;6.10;2.78;;;358.50;1843.20;;;;;;4995468;28;20109;-81
2022/05/19 01:30:55;;;;;;;8.80;2.58;;;358.50;1843.20;;;;;;4995996;28;20123;-80
2022/05/19 01:33:20;;;;;;;8.25;2.42;;;358.40;1843.20;;;;;;4995386;28;20026;-81
2022/05/19 01:35:46;;;;;;;6.88;2.63;;;358.50;1843.20;;;;;;4995672;28;20026;-81
2022/05/19 01:38:20;;;;;;;8.93;2.70;;;358.40;1843.20;;;;;;4995651;28;20470;-81
2022/05/19 01:41:44;;;;;;;7.95;3.22;;;333.70;1868.80;;;;;;4995775;28;20079;-82
2022/05/19 01:44:21;;;;;;;9.25;2.50;;;358.40;1868.80;;;;;;4936552;29;20369;-81
2022/05/19 01:46:53;;;;;;;5.85;2.58;;;333.70;1894.40;;;;;;4935951;29;20040;-81
2022/05/19 01:49:29;;;;;;;8.85;2.33;;;333.70;1894.40;;;;;;4950256;29;20038;-81
2022/05/19 01:52:11;;;;;;;6.57;2.58;;;333.70;1894.40;;;;;;4936844;29;20023;-81
2022/05/19 01:54:50;;;;;;;5.15;2.53;;;333.70;1894.40;;;;;;4934219;29;20039;-81
2022/05/19 01:57:21;;;;;;;5.90;2.45;;;333.60;1894.40;;;;;;4936670;28;20150;-82
2022/05/19 01:59:53;;;;;;;5.50;2.38;;;333.60;1920.00;;;;;;4940022;29;20042;-81
2022/05/19 02:02:41;;;;;;;8.40;2.80;;;333.50;1894.40;;;;;;4937724;29;20035;-82
2022/05/19 02:05:46;;;;;;;6.85;2.33;;;333.50;1920.00;;;;;;4955376;29;20019;-81
2022/05/19 02:08:26;;;;;;;9.75;2.95;;;333.40;1996.80;;;;;;4939475;28;20046;-82
2022/05/19 02:10:55;;;;;;;5.25;3.08;;;333.30;2022.40;;;;;;4957079;29;20023;-82
2022/05/19 02:13:22;;;;;;;5.82;2.30;;;333.30;2022.40;;;;;;4938742;29;20423;-82
2022/05/19 02:15:51;;;;;;;7.13;2.38;;;333.30;2022.40;;;;;;5009170;28;20088;-82
2022/05/19 02:18:20;;;;;;;5.18;2.05;;;333.40;1996.80;;;;;;5016817;28;20481;-82
2022/05/19 02:20:47;;;;;;;4.15;2.25;;;333.40;1945.60;;;;;;4999107;28;20029;-81
2022/05/19 02:23:15;;;;;;;6.05;2.83;;;333.20;1971.20;;;;;;4998954;28;20639;-82
2022/05/19 02:25:44;;;;;;;5.05;2.20;;;333.20;1971.20;;;;;;4999326;28;20022;-82
2022/05/19 02:28:23;;;;;;;3.38;1.95;;;333.20;1971.20;;;;;;5016801;28;20049;-82
2022/05/19 02:30:49;;;;;;;6.75;2.50;;;333.10;1996.80;;;;;;4997840;28;20018;-82
2022/05/19 02:33:16;;;;;;;10.85;2.83;;;333.10;1996.80;;;;;;5016079;28;20056;-82
2022/05/19 02:35:43;;;;;;;4.05;2.20;;;333.20;1996.80;;;;;;5015927;28;20066;-82
2022/05/19 02:38:10;;;;;;;5.05;2.38;;;333.20;1996.80;;;;;;5016516;28;20022;-82
2022/05/19 02:40:37;;;;;;;4.30;2.40;;;333.30;1971.20;;;;;;5016376;28;20382;-81
2022/05/19 02:43:04;;;;;;;6.18;2.88;;;333.20;1971.20;;;;;;5016346;28;20017;-83
2022/05/19 02:45:30;;;;;;;4.95;2.53;;;333.20;1996.80;;;;;;4998673;28;20029;-81
2022/05/19 02:47:57;;;;;;;6.20;2.80;;;333.20;1996.80;;;;;;4998332;28;20017;-82
2022/05/19 02:50:23;;;;;;;5.63;2.30;;;333.20;1971.20;;;;;;4998734;28;20033;-82
2022/05/19 02:52:49;;;;;;;5.40;2.38;;;333.20;1971.20;;;;;;4998630;28;20837;-82
2022/05/19 02:55:16;;;;;;;5.28;2.60;;;333.30;1945.60;;;;;;4997814;28;20045;-81
2022/05/19 02:57:42;;;;;;;4.30;2.47;;;333.20;1945.60;;;;;;4996064;28;20022;-81
2022/05/19 03:00:15;;;;;;;3.90;2.22;;;333.10;1945.60;;;;;;4997989;28;20052;-82
2022/05/19 03:02:41;;;;;;;5.38;2.13;;;333.10;1971.20;;;;;;4998629;28;20117;-82
2022/05/19 03:05:09;;;;;;;10.52;2.67;;;332.90;2022.40;;;;;;4998416;28;20021;-82
2022/05/19 03:07:36;;;;;;;6.90;2.80;;;;;;;;;;4997851;28;20084;-81
2022/05/19 03:10:03;;;;;;;3.95;2.20;;;332.90;2022.40;;;;;;4997985;28;20033;-81
2022/05/19 03:12:29;;;;;;;6.78;2.20;;;308.10;2022.40;;;;;;4998507;28;20014;-82
2022/05/19 03:14:55;;;;;;;12.55;2.67;;;308.00;2073.60;;;;;;4997729;28;20069;-82
2022/05/19 03:17:21;;;;;;;6.47;2.50;;;307.80;2099.20;;;;;;4998429;28;20026;-81
2022/05/19 03:19:47;;;;;;;7.45;2.53;;;307.60;2150.40;;;;;;4998930;28;20117;-81
2022/05/19 03:22:12;;;;;;;10.52;2.72;;;307.50;2176.00;;;;;;4997621;28;20069;-82
2022/05/19 03:24:38;;;;;;;6.68;2.08;;;307.60;2176.00;;;;;;4998654;28;20045;-82
2022/05/19 03:27:05;;;;;;;5.25;2.53;;;307.80;2099.20;;;;;;4998356;28;20474;-81
2022/05/19 03:29:31;;;;;;;10.13;2.47;;;307.90;2073.60;;;;;;4997718;28;20116;-82
2022/05/19 03:31:59;;;;;;;7.40;2.30;;;307.90;2048.00;;;;;;4998440;28;20030;-82
2022/05/19 03:34:25;;;;;;;10.98;2.72;;;308.10;1996.80;;;;;;4997963;28;20367;-80
2022/05/19 03:36:51;;;;;;;4.82;2.50;;;308.00;2048.00;;;;;;4998381;28;20037;-82
2022/05/19 03:39:16;;;;;;;;;;;307.90;2048.00;;;;;;4998153;28;20540;-82
2022/05/19 03:41:42;;;;;;;9.70;3.13;;;307.90;2048.00;;;;;;4998388;28;19905;-82
2022/05/19 03:44:08;;;;;;;7.30;2.40;;;307.70;2124.80;;;;;;4997901;28;20393;-82
2022/05/19 03:46:33;;;;;;;;;;;307.60;2124.80;;;;;;4998692;28;20166;-82
2022/05/19 03:48:59;;;;;;;8.57;2.90;;;307.80;2124.80;;;;;;4998250;28;19940;-82
2022/05/19 03:51:27;;;;;;;;;;;307.80;2124.80;;;;;;4998470;28;20034;-82
2022/05/19 03:53:54;;;;;;;6.75;2.55;;;307.90;2150.40;;;;;;4997982;28;19916;-81
2022/05/19 03:56:21;;;;;;;12.50;2.45;;;308.00;2176.00;;;;;;4997929;28;20034;-82
2022/05/19 03:58:48;;;;;;;5.07;2.63;;;308.00;2150.40;;;;;;4996823;28;20117;-81
2022/05/19 04:01:14;;;;;;;6.72;2.85;;;307.80;2201.60;;;;;;4997566;28;20030;-82
2022/05/19 04:03:40;;;;;;;8.13;3.20;;;307.80;2278.40;;;;;;4997509;28;20114;-81
2022/05/19 04:06:06;;;;;;;11.35;2.92;;;307.90;2252.80;;;;;;4996436;28;20482;-81
2022/05/19 04:08:32;;;;;;;14.60;3.97;;;307.90;2150.40;;;;;;5014617;28;20033;-81
2022/05/19 04:10:58;;;;;;;8.27;3.20;;;308.00;2073.60;;;;;;4997013;28;20136;-82
2022/05/19 04:13:24;;;;;;;9.50;2.97;;;308.00;2150.40;;;;;;4997012;28;20034;-82
2022/05/19 04:15:50;;;;;;;8.93;2.97;;;308.10;2201.60;;;;;;4996815;28;20076;-82
2022/05/19 04:18:15;;;;;;;6.47;2.53;;;332.80;2073.60;;;;;;5015127;28;20469;-82
2022/05/19 04:20:41;;;;;;;;;;;333.00;1971.20;;;;;;4997048;28;20474;-81
2022/05/19 04:23:07;;;;;;;5.78;2.40;;;333.10;1920.00;;;;;;4997177;28;19967;-81
2022/05/19 04:25:33;;;;;;;11.43;2.33;;;333.20;1894.40;;;;;;4996357;28;20541;-80
2022/05/19 04:28:00;;;;;;;7.32;2.47;;;333.40;1868.80;;;;;;4996247;28;20430;-81
2022/05/19 04:30:26;;;;;;;4.05;1.95;;;333.50;1843.20;;;;;;4996650;28;20049;-81
2022/05/19 04:32:52;;;;;;;8.07;2.38;;;333.50;1843.20;;;;;;5013926;28;20072;-83
2022/05/19 04:35:18;;;;;;;8.15;2.85;;;333.70;1817.60;;;;;;4997050;28;20034;-82
2022/05/19 04:37:45;;;;;;;5.20;2.38;;;333.70;1817.60;;;;;;4996950;28;20060;-82
2022/05/19 04:40:12;;;;;;;6.32;2.22;;;358.50;1792.00;;;;;;4997082;28;20394;-81
2022/05/19 04:42:38;;;;;;;5.07;2.50;;;358.60;1792.00;;;;;;4996878;28;20543;-82
2022/05/19 04:45:05;;;;;;;8.20;3.25;;;358.70;1792.00;;;;;;4996743;28;20030;-78
2022/05/19 04:47:31;;;;;;;8.13;4.78;;;358.80;1792.00;;;;;;4996212;28;20061;-81
2022/05/19 04:49:57;;;;;;;9.95;5.03;;;358.80;1766.40;;;;;;4996531;28;20057;-81
2022/05/19 04:52:23;;;;;;;11.73;4.00;;;358.90;1740.80;;;;;;4995957;28;20030;-79
2022/05/19 04:54:49;;;;;;;45.30;7.53;;;358.90;1740.80;;;;;;4996312;28;20049;-78
2022/05/19 04:57:15;;;;;;;10.32;4.13;;;359.10;1740.80;;;;;;4995857;28;20169;-78
2022/05/19 04:59:42;;;;;;;14.15;4.85;;;359.10;1740.80;;;;;;5013437;28;20062;-78
2022/05/19 05:02:10;;;;;;;12.60;3.53;;;359.10;1766.40;;;;;;4995556;28;20033;-78
2022/05/19 05:04:36;;;;;;;5.80;2.75;;;359.10;1766.40;;;;;;4995702;28;20478;-78
2022/05/19 05:07:02;;;;;;;5.28;2.70;;;359.20;1740.80;;;;;;4995905;28;20040;-81
2022/05/19 05:09:28;;;;;;;9.15;3.13;;;359.30;1715.20;;;;;;4995746;28;20022;-78
2022/05/19 05:11:53;;;;;;;3.53;2.65;;;384.00;1740.80;;;;;;4995992;28;20394;-79
2022/05/19 05:14:19;;;;;;;6.60;2.92;;;384.10;1740.80;;;;;;4995711;28;20080;-80
2022/05/19 05:16:50;;;;;;;5.20;2.78;;;384.10;1689.60;;;;;;4996352;28;20431;-80
2022/05/19 05:19:22;;;;;;;5.85;2.60;;;384.20;1715.20;;;;;;4995935;28;20041;-81
2022/05/19 05:21:55;;;;;;;16.00;3.22;;;384.30;1689.60;;;;;;4996162;28;20112;-84
2022/05/19 05:24:20;;;;;;;7.25;2.83;;;384.70;1715.20;;;;;;5013932;28;20371;-83
2022/05/19 05:26:46;;;;;;;9.25;3.08;;;384.40;1689.60;;;;;;5013270;28;20040;-79
2022/05/19 05:29:12;;;;;;;6.63;2.40;;;384.60;1664.00;;;;;;4995239;28;20042;-81
2022/05/19 05:31:38;;;;;;;7.82;2.85;;;384.70;1638.40;;;;;;4995347;28;20654;-80
2022/05/19 05:34:04;;;;;;;7.32;2.80;;;384.70;1638.40;;;;;;5012674;28;20026;-79
2022/05/19 05:36:30;;;;;;;5.00;2.88;;;384.90;1612.80;;;;;;5012887;28;20087;-80
2022/05/19 05:38:57;;;;;;;4.88;2.53;;;384.90;1612.80;;;;;;5012528;28;20022;-79
2022/05/19 05:41:23;;;;;;;11.05;3.08;;;384.90;1612.80;;;;;;5012824;28;20018;-80
2022/05/19 05:43:49;;;;;;;8.18;2.70;;;409.60;1638.40;;;;;;4995188;28;20446;-79
2022/05/19 05:46:16;;;;;;;6.05;3.17;;;409.70;1612.80;;;;;;4994876;28;20030;-79
2022/05/19 05:48:43;;;;;;;8.07;3.35;;;409.70;1612.80;;;;;;5012481;28;20097;-78
2022/05/19 05:51:10;;;;;;;14.88;4.57;;;409.80;1638.40;;;;;;5011789;28;20048;-79
2022/05/19 05:53:38;;;;;;;15.80;5.07;;;409.90;1664.00;;;;;;4995625;28;20046;-80
2022/05/19 05:56:05;;;;;;;13.40;3.70;;;410.10;1664.00;;;;;;4995325;28;20100;-78
2022/05/19 05:58:31;;;;;;;8.05;2.85;;;410.30;1612.80;;;;;;4995068;28;20071;-80
2022/05/19 06:00:58;;;;;;;12.40;2.50;;;410.30;1612.80;;;;;;4994585;28;20034;-79
2022/05/19 06:03:24;;;;;;;10.15;2.65;;;410.50;1612.80;;;;;;5013046;28;20390;-79
2022/05/19 06:05:50;;;;;;;12.77;2.97;;;410.50;1587.20;;;;;;4995074;28;20547;-81
2022/05/19 06:08:16;;;;;;;7.45;2.58;;;410.50;1587.20;;;;;;5013204;28;20109;-80
2022/05/19 06:10:43;;;;;;;14.98;3.55;;;435.30;1587.20;;;;;;4995433;28;20026;-86
2022/05/19 06:13:09;;;;;;;13.25;3.53;;;435.40;1561.60;;;;;;4996239;28;20108;-83
2022/05/19 06:15:35;;;;;;;5.82;2.58;;;435.40;1612.80;;;;;;4995068;28;20061;-82
2022/05/19 06:18:01;;;;;;;14.90;3.47;;;435.60;1612.80;;;;;;5013440;28;20018;-82
2022/05/19 06:20:27;;;;;;;15.25;3.08;;;435.60;1612.80;;;;;;4994856;28;20084;-78
2022/05/19 06:22:53;;;;;;;9.93;2.10;;;435.90;1561.60;;;;;;4994589;28;20064;-84
2022/05/19 06:25:22;;;;;;;8.43;2.78;;;436.00;1561.60;;;;;;5012389;28;20034;-83
2022/05/19 06:27:49;;;;;;;6.38;3.00;;;436.10;1561.60;;;;;;4994251;28;20084;-85
2022/05/19 06:30:16;;;;;;;4.25;2.03;;;460.80;1561.60;;;;;;5012995;28;20022;-83
2022/05/19 06:32:43;;;;;;;5.68;2.17;;;460.90;1536.00;;;;;;5012357;28;20026;-85
2022/05/19 06:35:11;;;;;;;9.23;2.40;;;461.10;1510.40;;;;;;4992789;28;20045;-84
2022/05/19 06:37:37;;;;;;;11.70;2.45;;;461.20;1536.00;;;;;;5012298;28;20030;-83
2022/05/19 06:40:03;;;;;;;6.90;2.45;;;461.30;1536.00;;;;;;4995133;28;20030;-84
2022/05/19 06:42:29;;;;;;;6.07;2.22;;;461.40;1510.40;;;;;;5012742;28;20072;-84
2022/05/19 06:44:56;;;;;;;9.50;2.45;;;461.40;1510.40;;;;;;5014601;28;20101;-85
2022/05/19 06:47:22;;;;;;;5.80;2.20;;;461.50;1484.80;;;;;;5016340;28;20153;-83
2022/05/19 06:49:59;;;;;;;6.35;2.40;;;461.60;1459.20;;;;;;4997874;28;20057;-84
2022/05/19 06:52:29;;;;;;;2.33;1.38;;;461.70;1459.20;;;;;;4999006;28;20120;-82
2022/05/19 06:54:56;;;;;;;5.32;2.03;;;461.70;1433.60;;;;;;4998765;28;20038;-82
2022/05/19 06:57:24;;;;;;;4.80;1.25;;;486.50;1408.00;;;;;;4998939;28;20104;-82
2022/05/19 06:59:51;;;;;;;8.25;1.70;;;486.50;1356.80;;;;;;4998777;28;20470;-82
2022/05/19 07:02:18;;;;;;;5.22;1.55;;;486.70;1331.20;;;;;;4998313;28;20030;-81
2022/05/19 07:04:44;;;;;;;5.60;2.10;;;486.80;1305.60;;;;;;5013450;28;20025;-81
2022/05/19 07:07:10;;;;;;;7.85;2.13;;;486.90;1305.60;;;;;;4998354;28;20394;-80
2022/05/19 07:09:37;;;;;;;5.43;1.83;;;487.00;1280.00;;;;;;4997359;28;20034;-80
2022/05/19 07:12:04;;;;;;;9.48;2.38;;;486.80;1305.60;;;;;;4995364;28;20573;-80
2022/05/19 07:14:31;;;;;;;6.30;2.20;;;487.10;1305.60;;;;;;5015567;28;20026;-81
2022/05/19 07:16:57;;;;;;;7.40;1.80;;;487.20;1305.60;;;;;;5014738;28;20029;-81
2022/05/19 07:22:13;;;;;;;4.70;1.33;;;512.00;1280.00;;;;;;5013151;28;20072;-82
2022/05/19 07:24:39;;;;;;;7.25;2.15;;;512.10;1254.40;;;;;;4997985;28;20072;-81
2022/05/19 07:27:05;;;;;;;8.93;2.50;;;512.20;1254.40;;;;;;4997888;28;20021;-81
2022/05/19 07:29:31;;;;;;;9.32;2.03;;;512.40;1254.40;;;;;;4997662;28;20053;-81
2022/05/19 07:32:00;;;;;;;3.28;1.60;;;512.50;1228.80;;;;;;4997432;28;20490;-81
2022/05/19 07:34:28;;;;;;;7.78;1.90;;;512.80;1203.20;;;;;;4998043;28;20026;-81
2022/05/19 07:36:55;;;;;;;9.95;2.30;;;512.80;1177.60;;;;;;4997861;28;20064;-80
2022/05/19 07:39:22;;;;;;;11.35;1.75;;;512.90;1177.60;;;;;;4997888;28;20409;-81
2022/05/19 07:41:48;;;;;;;5.95;1.83;;;512.90;1203.20;;;;;;4997601;28;20034;-80
2022/05/19 07:44:14;;;;;;;6.22;1.80;;;537.70;1177.60;;;;;;4998264;28;20026;-83
2022/05/19 07:46:40;;;;;;;9.57;1.85;;;537.90;1203.20;;;;;;4997408;28;20032;-81
2022/05/19 07:49:07;;;;;;;4.82;1.40;;;538.00;1177.60;;;;;;4997706;28;20029;-81
2022/05/19 07:51:36;;;;;;;7.28;1.58;;;538.20;1177.60;;;;;;4997407;28;20081;-82
2022/05/19 07:54:14;;;;;;;3.50;1.75;;;538.20;1152.00;;;;;;4997911;28;20029;-81
2022/05/19 07:56:41;;;;;;;16.02;1.90;;;538.20;1126.40;;;;;;5015444;28;20045;-81
2022/05/19 07:59:08;;;;;;;2.38;1.60;;;538.20;1100.80;;;;;;4997709;28;20053;-81
2022/05/19 08:01:34;;;;;;;4.93;1.92;;;538.20;1126.40;;;;;;4997376;28;20120;-79
2022/05/19 08:04:01;;;;;;;3.20;1.33;;;538.30;1126.40;;;;;;5014736;28;20058;-81
2022/05/19 08:06:28;;;;;;;3.80;1.35;;;538.30;1126.40;;;;;;4997828;28;20017;-80
2022/05/19 08:08:54;;;;;;;9.50;2.28;;;538.30;1126.40;;;;;;4997377;28;20144;-81
2022/05/19 08:11:22;;;;;;;11.27;1.88;;;538.30;1100.80;;;;;;4997630;28;20052;-81
2022/05/19 08:16:32;;;;;;;5.63;1.50;;;538.40;1100.80;;;;;;5014772;28;20044;-83
2022/05/19 08:18:58;;;;;;;5.45;1.65;;;563.20;1152.00;;;;;;5014689;28;20029;-82
2022/05/19 08:21:24;;;;;;;7.45;1.70;;;563.20;1075.20;;;;;;4996939;28;20025;-82
2022/05/19 08:23:53;;;;;;;4.82;1.75;;;538.50;1049.60;;;;;;4996757;28;20490;-82
2022/05/19 08:26:20;;;;;;;9.40;1.70;;;563.30;1100.80;;;;;;4997029;28;20060;-81
2022/05/19 08:28:49;;;;;;;8.50;1.50;;;563.30;1100.80;;;;;;4996942;28;20022;-82
2022/05/19 08:31:19;;;;;;;6.60;1.75;;;563.30;1126.40;;;;;;4996866;28;20079;-81
2022/05/19 08:33:46;;;;;;;8.77;2.20;;;563.30;1100.80;;;;;;4996884;28;20109;-81
2022/05/19 08:36:12;;;;;;;4.68;1.77;;;563.50;1075.20;;;;;;4996943;28;20065;-79
2022/05/19 08:38:39;;;;;;;10.73;1.95;;;563.60;1049.60;;;;;;4996410;28;20061;-80
2022/05/19 08:41:18;;;;;;;5.53;1.58;;;563.60;1049.60;;;;;;5009370;28;20044;-80
2022/05/19 08:43:44;;;;;;;13.05;1.50;;;563.60;1049.60;;;;;;5008049;28;20022;-81
2022/05/19 08:46:19;;;;;;;4.25;1.75;;;563.50;998.40;;;;;;4996952;28;20032;-82
2022/05/19 08:48:46;;;;;;;8.52;1.65;;;563.50;1024.00;;;;;;4994238;28;20028;-80
2022/05/19 08:51:13;;;;;;;5.00;1.50;;;563.40;998.40;;;;;;4995738;28;20061;-81
2022/05/19 08:53:42;;;;;;;7.43;1.67;;;563.30;1049.60;;;;;;4996138;28;20045;-79
2022/05/19 08:56:32;;;;;;;4.30;2.20;;;563.30;1075.20;;;;;;5013558;28;20062;-82
2022/05/19 08:59:35;;;;;;;8.55;1.67;;;563.60;1100.80;;;;;;4996736;28;20033;-84
2022/05/19 09:02:07;;;;;;;5.20;1.75;;;563.70;1075.20;;;;;;5013543;28;20060;-82
2022/05/19 09:04:42;;;;;;;12.63;2.38;;;563.90;1049.60;;;;;;5012066;28;20018;-84
2022/05/19 09:10:25;;;;;;;3.80;1.60;;;564.10;998.40;;;;;;5014212;28;20113;-86
2022/05/19 09:13:00;;;;;;;5.80;2.15;;;588.80;1049.60;;;;;;4996695;28;20032;-84
2022/05/19 09:15:26;;;;;;;5.65;2.17;;;589.10;1024.00;;;;;;4996585;28;20030;-84
2022/05/19 09:17:52;;;;;;;7.07;1.55;;;589.10;972.80;;;;;;4996784;28;20029;-84
2022/05/19 09:20:27;;;;;;;4.35;1.40;;;589.40;998.40;;;;;;4997065;28;20026;-83
2022/05/19 09:22:59;;;;;;;2.92;1.42;;;589.20;972.80;;;;;;4996235;28;20096;-84
2022/05/19 09:25:24;;;;;;;5.55;1.13;;;589.10;947.20;;;;;;5013744;28;20067;-83
2022/05/19 09:27:51;;;;;;;8.45;1.55;;;589.10;947.20;;;;;;4995331;28;20063;-84
2022/05/19 09:30:41;;;;;;;2.78;1.60;;;589.40;947.20;;;;;;5013468;28;20061;-85
2022/05/19 09:33:20;;;;;;;3.10;1.40;;;589.50;921.60;;;;;;4995416;28;20017;-84
2022/05/19 09:35:55;;;;;;;2.58;1.40;;;589.70;921.60;;;;;;4996187;28;20124;-82
2022/05/19 09:38:36;;;;;;;3.92;1.77;;;614.40;921.60;;;;;;4995487;28;20074;-83
2022/05/19 09:41:07;;;;;;;4.55;1.42;;;614.50;870.40;;;;;;4994573;28;20028;-87
2022/05/19 09:43:36;;;;;;;3.15;1.38;;;614.50;844.80;;;;;;4987636;28;20026;-83
2022/05/19 09:46:39;;;;;;;7.15;1.63;;;614.60;896.00;;;;;;4995671;28;20529;-89
2022/05/19 09:49:06;;;;;;;6.88;1.50;;;614.90;896.00;;;;;;4952461;29;20484;-84
2022/05/19 09:51:41;;;;;;;5.78;1.60;;;615.10;896.00;;;;;;4934020;29;20643;-86
2022/05/19 09:54:12;;;;;;;7.95;1.70;;;615.00;870.40;;;;;;4936593;29;20042;-83
2022/05/19 09:56:51;;;;;;;4.75;1.40;;;615.20;870.40;;;;;;4951401;29;20035;-84
2022/05/19 09:59:22;;;;;;;2.25;1.15;;;615.30;844.80;;;;;;4950458;28;20035;-85
2022/05/19 10:01:50;;;;;;;4.63;1.67;;;615.10;844.80;;;;;;4936497;29;20028;-82
2022/05/19 10:04:25;;;;;;;2.95;1.67;;;640.00;819.20;;;;;;4934123;29;20034;-83
2022/05/19 10:06:56;;;;;;;3.28;1.63;;;640.10;844.80;;;;;;4933870;29;20034;-83
2022/05/19 10:09:33;;;;;;;5.32;1.50;;;640.00;844.80;;;;;;4952515;29;20106;-84
2022/05/19 10:12:08;;;;;;;2.72;1.30;;;640.00;844.80;;;;;;4935957;29;20091;-83
2022/05/19 10:14:35;;;;;;;4.72;1.80;;;640.40;844.80;;;;;;4936168;29;20062;-84
2022/05/19 10:17:22;;;;;;;4.40;1.50;;;640.70;819.20;;;;;;4952209;29;20034;-82
2022/05/19 10:19:53;;;;;;;7.60;1.52;;;640.90;844.80;;;;;;4951871;28;20062;-83
2022/05/19 10:23:03;;;;;;;2.72;1.60;;;640.90;793.60;;;;;;4955842;29;20055;-82
2022/05/19 10:25:48;;;;;;;4.75;1.58;;;665.60;844.80;;;;;;4893991;29;20126;-82
2022/05/19 10:31:50;;;;;;;7.78;1.67;;;665.70;844.80;;;;;;4935944;29;20076;-83
2022/05/19 10:34:40;;;;;;;2.83;1.30;;;665.90;819.20;;;;;;4935485;29;20035;-84
2022/05/19 10:37:35;;;;;;;2.35;1.20;;;665.90;793.60;;;;;;4937274;29;20054;-88
2022/05/19 10:40:22;;;;;;;3.00;1.50;;;665.90;819.20;;;;;;4936852;29;20020;-85
2022/05/19 10:42:51;;;;;;;6.13;1.73;;;665.60;844.80;;;;;;4921442;29;20042;-89
2022/05/19 10:45:26;;;;;;;3.25;1.30;;;665.70;819.20;;;;;;4937313;29;20060;-86
2022/05/19 10:48:04;;;;;;;6.18;1.77;;;666.10;819.20;;;;;;4920625;29;20177;-85
2022/05/19 10:50:38;;;;;;;3.17;1.10;;;666.30;870.40;;;;;;4920711;29;20040;-85
2022/05/19 10:53:23;;;;;;;4.15;1.63;;;666.30;819.20;;;;;;4920955;29;20101;-86
2022/05/19 10:56:17;;;;;;;5.15;1.50;;;666.20;793.60;;;;;;4935546;29;20044;-86
2022/05/19 10:58:52;;;;;;;3.05;1.52;;;666.40;793.60;;;;;;4859923;29;20117;-86
2022/05/19 11:01:54;;;;;;;3.03;1.38;;;666.00;819.20;;;;;;4865125;29;20567;-84
2022/05/19 11:04:58;;;;;;;2.42;1.27;;;666.20;819.20;;;;;;4933465;29;20023;-82
2022/05/19 11:07:24;;;;;;;4.18;1.42;;;666.20;819.20;;;;;;4916310;29;20604;-83
2022/05/19 11:10:13;;;;;;;4.45;1.42;;;666.30;896.00;;;;;;4920418;29;20118;-82
2022/05/19 11:13:05;;;;;;;5.68;1.48;;;;;;;;;;4912986;29;20028;-83
2022/05/19 11:15:48;;;;;;;2.85;1.50;;;691.30;768.00;;;;;;4912696;29;20435;-82
2022/05/19 11:18:39;;;;;;;8.00;1.88;;;691.60;793.60;;;;;;4920166;29;20051;-82
2022/05/19 11:21:14;;;;;;;7.80;1.77;;;691.40;819.20;;;;;;4919654;29;20043;-86
2022/05/19 11:24:21;;;;;;;6.38;2.33;;;691.20;819.20;;;;;;4936797;29;20058;-84
2022/05/19 11:27:00;;;;;;;3.88;1.83;;;691.30;793.60;;;;;;4955703;29;20023;-85
2022/05/19 11:29:29;;;;;;;3.65;1.33;;;691.40;768.00;;;;;;4939674;29;20071;-84
2022/05/19 11:32:10;;;;;;;5.22;1.50;;;691.40;768.00;;;;;;4939151;29;20027;-83
2022/05/19 11:35:06;;;;;;;2.85;1.52;;;691.70;768.00;;;;;;4953307;28;20101;-84
2022/05/19 11:37:54;;;;;;;2.42;1.08;;;691.70;768.00;;;;;;5007319;28;20042;-83
2022/05/19 11:40:35;;;;;;;3.83;1.48;;;691.60;768.00;;;;;;5012088;28;20498;-83
2022/05/19 11:43:10;;;;;;;5.68;1.45;;;691.70;742.40;;;;;;5014331;28;20113;-84
2022/05/19 11:45:43;;;;;;;3.80;1.30;;;691.80;742.40;;;;;;5014175;28;20033;-83
2022/05/19 11:57:19;;;;;;;4.07;1.40;;;716.90;793.60;;;;;;5015362;28;20131;-85
2022/05/19 11:59:47;;;;;;;6.78;1.42;;;692.10;742.40;;;;;;5014187;28;20026;-83
2022/05/19 12:02:17;;;;;;;2.80;1.17;;;716.80;742.40;;;;;;5014074;28;20025;-87
2022/05/19 12:04:44;;;;;;;1.88;1.10;;;717.10;768.00;;;;;;5013918;28;20057;-83
2022/05/19 12:07:18;;;;;;;5.93;1.67;;;716.80;768.00;;;;;;5013607;28;20087;-86
2022/05/19 12:09:48;;;;;;;4.22;1.83;;;716.90;742.40;;;;;;5014026;28;20080;-88
2022/05/19 12:12:23;;;;;;;2.22;1.20;;;692.00;768.00;;;;;;5014063;28;20033;-86
2022/05/19 12:15:10;;;;;;;4.75;1.55;;;716.80;768.00;;;;;;5013533;28;20053;-88
2022/05/19 12:17:44;;;;;;;7.68;2.22;;;691.90;742.40;;;;;;4996771;28;20034;-83
2022/05/19 12:20:32;;;;;;;3.88;1.60;;;716.80;768.00;;;;;;5012793;28;20018;-81
2022/05/19 12:23:24;;;;;;;3.08;1.42;;;716.80;793.60;;;;;;5002297;28;20052;-83
2022/05/19 12:26:15;;;;;;;5.03;1.48;;;717.00;793.60;;;;;;4994991;28;20486;-81
2022/05/19 12:28:57;;;;;;;2.65;1.30;;;716.90;768.00;;;;;;4937363;29;20035;-87
2022/05/19 12:34:23;;;;;;;4.35;1.42;;;717.20;742.40;;;;;;4951187;28;20191;-87
2022/05/19 12:37:07;;;;;;;5.38;1.83;;;717.10;716.80;;;;;;4937518;29;20094;-81
2022/05/19 12:39:51;;;;;;;4.30;1.27;;;716.90;716.80;;;;;;4952413;29;20455;-81
2022/05/19 12:42:24;;;;;;;7.00;1.90;;;717.10;742.40;;;;;;4952410;28;20535;-86
2022/05/19 12:44:51;;;;;;;4.57;1.70;;;717.20;742.40;;;;;;4952663;29;20055;-78
2022/05/19 12:47:21;;;;;;;1.95;1.35;;;717.70;716.80;;;;;;4952306;29;20062;-78
2022/05/19 12:50:08;;;;;;;4.25;1.65;;;742.50;716.80;;;;;;4952811;29;20038;-78
2022/05/19 12:53:09;;;;;;;3.97;1.08;;;742.60;691.20;;;;;;4950345;29;20031;-78
2022/05/19 12:55:41;;;;;;;5.68;1.90;;;742.60;716.80;;;;;;4869417;29;20049;-78
2022/05/19 12:58:33;;;;;;;4.75;1.67;;;742.60;716.80;;;;;;4885355;29;20056;-78
2022/05/19 13:01:26;;;;;;;1.92;1.30;;;742.60;716.80;;;;;;4884958;29;20060;-79
2022/05/19 13:04:03;;;;;;;4.47;1.60;;;742.60;716.80;;;;;;4885650;29;20035;-78
2022/05/19 13:06:32;;;;;;;8.23;1.35;;;742.60;716.80;;;;;;4913565;29;20060;-78
2022/05/19 13:09:02;;;;;;;5.00;1.75;;;742.50;691.20;;;;;;4917328;29;20020;-78